Catalina Spirit — WDJ3865 — position and weather

sailwx.info

Track history (hours):
 
Tides and Currents Weather Stations Pressure Air Temp Water Temp Dewpoint Dewpoint Depression Visibility Wind Speed Wind Dir Waves Ship Positions

Catalina Spirit

Owner: Catalina Classic Cruises, Inc, San Diego, CA. More information available from US FCC via Universal Licensing System and Coast Guard Vessel Documentation Center.

Last reported at 2018-Feb-14 02:44 UTC. Time now 2018-Feb-20 11:20 UTC.
Position N 33°46' W 118°15'.

Length 23 m; draft 2.4 m.

Type: Passenger vessel. MMSI: 366889830.

Date/timePositionNaut miles runAvg speedWind from/ knotsBaromVisibWave heightAir tempDewpointWater temp
2018-Feb-14 02:44N 33°46' W 118°15'1 4.0
2018-Feb-14 02:30N 33°45' W 118°16'4 7.0
2018-Feb-14 01:57N 33°42' W 118°15'21 6.0
2018-Feb-13 22:28N 33°21' W 118°19'0 0.0
2018-Feb-13 21:27N 33°21' W 118°19'0 0.0
2018-Feb-13 17:33N 33°21' W 118°19'17 0.6
2018-Feb-12 15:56N 33°37' W 118°16'512.5
2018-Feb-12 15:30N 33°43' W 118°15'3 5.9
2018-Feb-12 15:00N 33°46' W 118°15'1 0.0
2018-Feb-10 16:55N 33°46' W 118°15'0 0.0
2018-Feb-10 16:30N 33°46' W 118°15'0 0.0
2018-Feb-09 22:47N 33°46' W 118°15'0 0.0
2018-Feb-09 22:44N 33°46' W 118°15'0 0.0
2018-Feb-08 19:00N 33°46' W 118°15'3 2.5
2018-Feb-08 18:00N 33°44' W 118°16'3 5.1
2018-Feb-08 17:30N 33°46' W 118°15'0 0.0
2018-Feb-07 03:09N 33°46' W 118°15'0 0.0
2018-Feb-07 03:00N 33°46' W 118°15'3 5.1
2018-Feb-07 02:30N 33°44' W 118°16'2211.7
2018-Feb-07 00:38N 33°22' W 118°19'1 0.1
2018-Feb-06 02:46N 33°21' W 118°19'0 0.0
2018-Feb-06 01:46N 33°21' W 118°19'0 0.0
2018-Feb-06 01:26N 33°21' W 118°19'1 0.1
2018-Feb-05 21:26N 33°21' W 118°19'1 0.2
2018-Feb-05 17:12N 33°22' W 118°19'313.2
2018-Feb-05 17:00N 33°24' W 118°19'713.0
2018-Feb-05 16:27N 33°32' W 118°17'613.1
2018-Feb-05 16:00N 33°37' W 118°16'611.6
2018-Feb-05 15:30N 33°43' W 118°16'3 5.9
2018-Feb-05 15:00N 33°46' W 118°15'0 0.1
2018-Feb-05 14:30N 33°46' W 118°15'  
Track history (hours):
 
Tides and Currents Weather Stations Pressure Air Temp Water Temp Dewpoint Dewpoint Depression Visibility Wind Speed Wind Dir Waves Ship Positions

Catalina Spirit

Owner: Catalina Classic Cruises, Inc, San Diego, CA. More information available from US FCC via Universal Licensing System and Coast Guard Vessel Documentation Center.

Last reported at 2018-Feb-14 02:44 UTC. Time now 2018-Feb-20 11:20 UTC.
Position N 33°46' W 118°15'.

Length 23 m; draft 2.4 m.

Type: Passenger vessel. MMSI: 366889830.

Date/timePositionNaut miles runAvg speedWind from/ knotsBaromVisibWave heightAir tempDewpointWater temp
2018-Feb-14 02:44N 33°46' W 118°15'1 4.0
2018-Feb-14 02:30N 33°45' W 118°16'4 7.0
2018-Feb-14 01:57N 33°42' W 118°15'21 6.0
2018-Feb-13 22:28N 33°21' W 118°19'0 0.0
2018-Feb-13 21:27N 33°21' W 118°19'0 0.0
2018-Feb-13 17:33N 33°21' W 118°19'17 0.6
2018-Feb-12 15:56N 33°37' W 118°16'512.5
2018-Feb-12 15:30N 33°43' W 118°15'3 5.9
2018-Feb-12 15:00N 33°46' W 118°15'1 0.0
2018-Feb-10 16:55N 33°46' W 118°15'0 0.0
2018-Feb-10 16:30N 33°46' W 118°15'0 0.0
2018-Feb-09 22:47N 33°46' W 118°15'0 0.0
2018-Feb-09 22:44N 33°46' W 118°15'0 0.0
2018-Feb-08 19:00N 33°46' W 118°15'3 2.5
2018-Feb-08 18:00N 33°44' W 118°16'3 5.1
2018-Feb-08 17:30N 33°46' W 118°15'0 0.0
2018-Feb-07 03:09N 33°46' W 118°15'0 0.0
2018-Feb-07 03:00N 33°46' W 118°15'3 5.1
2018-Feb-07 02:30N 33°44' W 118°16'2211.7
2018-Feb-07 00:38N 33°22' W 118°19'1 0.1
2018-Feb-06 02:46N 33°21' W 118°19'0 0.0
2018-Feb-06 01:46N 33°21' W 118°19'0 0.0
2018-Feb-06 01:26N 33°21' W 118°19'1 0.1
2018-Feb-05 21:26N 33°21' W 118°19'1 0.2
2018-Feb-05 17:12N 33°22' W 118°19'313.2
2018-Feb-05 17:00N 33°24' W 118°19'713.0
2018-Feb-05 16:27N 33°32' W 118°17'613.1
2018-Feb-05 16:00N 33°37' W 118°16'611.6
2018-Feb-05 15:30N 33°43' W 118°16'3 5.9
2018-Feb-05 15:00N 33°46' W 118°15'0 0.1
2018-Feb-05 14:30N 33°46' W 118°15'  

Dump ship's entire track history